Knickerbocker, TX (76939)

10:18 CDT le 31 août 2015 (GMT -0500)
Dove Creek | | Change Station
CLOSE
Current Station
Stations météorologiques personnelles
Location: San Angelo, TX
Altitude: 2185 ft
Stations météo à proximité

Alt. 2185 ft 31.22 °N, 100.72 °W | Updated 1 second ago

Ciel dégagé
Ciel dégagé
81.1 ° F
Paraît 83 ° F
N
2.5
Vent Variable Vent de ENE
Gusts 4.9 mph

Aujourd'hui
Haut(e) -- | Bas -- ° F
--% Risque de précip.
Hier
Haut(e) -- | Bas -- ° F
Precip. -- pouce
7:17 AM 8:07 PM
Lune gibbeuse décroissante, 95% visible
Pression 29.99 pouce
Visibilité 10.0 Miles terrestres
Nuages Ciel dégagé
indice de chaleur 83 ° F
Point de rosée 66 ° F
Humidité 59%
Précipitations 0.00 pouce
Profondeur de la couche neigeuse Non disponible.
UV 3 sur 12
Pollen 8.40 sur 12
Qualité de l'air Non disponible.
Flu Activity Non disponible.
METAR KSJT 311451Z 17006KT 10SM CLR 26/19 A3006 RMK AO2 SLP155 T02560194 50008
Pression 29.99 pouce
Visibilité 10.0 Miles terrestres
Nuages Ciel dégagé
indice de chaleur 83 ° F
Point de rosée 66 ° F
Humidité 59%
Précipitations 0.00 pouce
Profondeur de la couche neigeuse Non disponible.
UV 3 sur 12
Pollen 8.40 sur 12
Qualité de l'air Non disponible.
Flu Activity Non disponible.
METAR KSJT 311451Z 17006KT 10SM CLR 26/19 A3006 RMK AO2 SLP155 T02560194 50008

10-Day Weather Forecast

×

Almanac

Astronomie

Aug. 31, 2015 Lever Coucher
Temps réel
Crépuscule civil
Crépuscule nautique
Crépuscule astronomique
Lune
Durée de lumière visible
Longueur du jour
Tomorrow will be .
, % of the Moon is Illuminated

Extrêmes aujourd'hui

State Highs State Lows

Community

WunderPhotos

Upload Photos

1,851,278 Photos téléchargées !

WunderBlogs® & News

Nearby

Qualité de l'air

  Qualité de l'air Indice de la qualité de l'air Polluant
Not available.

Épaisseur de neige

Station Depth Altitude

Activité sismique

Ville Distance Mag. Time & Date
Minimum magnitude displayed is 2.5.

Températures des eaux côtières

Lieu Température

Stations

Stations météo à proximité

Emplacement de la station Température Refroidissement éolien Point de rosée Humidité Vent Precip. Alt. Mise à jour Type